sensor_id;sensor_type;location;lat;lon;timestamp;pressure;altitude;pressure_sealevel;temperature;humidity
83843;BME280;73869;52.336;21.182;2024-01-06T00:02:06;100197.09;;;-2.08;84.17
83843;BME280;73869;52.336;21.182;2024-01-06T00:04:34;100197.00;;;-2.06;84.50
83843;BME280;73869;52.336;21.182;2024-01-06T00:07:00;100206.78;;;-2.07;84.77
83843;BME280;73869;52.336;21.182;2024-01-06T00:09:27;100203.13;;;-2.06;85.15
83843;BME280;73869;52.336;21.182;2024-01-06T00:11:53;100204.56;;;-2.11;84.61
83843;BME280;73869;52.336;21.182;2024-01-06T00:14:20;100204.16;;;-2.16;84.14
83843;BME280;73869;52.336;21.182;2024-01-06T00:16:46;100203.59;;;-2.20;86.20
83843;BME280;73869;52.336;21.182;2024-01-06T00:19:13;100202.31;;;-2.16;84.88
83843;BME280;73869;52.336;21.182;2024-01-06T00:21:40;100212.44;;;-2.19;85.86
83843;BME280;73869;52.336;21.182;2024-01-06T00:24:07;100207.09;;;-2.29;86.31
83843;BME280;73869;52.336;21.182;2024-01-06T00:26:33;100212.44;;;-2.19;86.62
83843;BME280;73869;52.336;21.182;2024-01-06T00:29:00;100217.03;;;-2.21;85.34
83843;BME280;73869;52.336;21.182;2024-01-06T00:31:26;100220.66;;;-2.22;86.86
83843;BME280;73869;52.336;21.182;2024-01-06T00:33:53;100196.47;;;-2.29;86.12
83843;BME280;73869;52.336;21.182;2024-01-06T00:36:20;100215.94;;;-2.28;87.80
83843;BME280;73869;52.336;21.182;2024-01-06T00:38:48;100208.50;;;-2.25;87.28
83843;BME280;73869;52.336;21.182;2024-01-06T00:41:14;100201.38;;;-2.34;87.83
83843;BME280;73869;52.336;21.182;2024-01-06T00:43:41;100203.88;;;-2.32;88.05
83843;BME280;73869;52.336;21.182;2024-01-06T00:46:07;100206.44;;;-2.31;87.67
83843;BME280;73869;52.336;21.182;2024-01-06T00:48:34;100211.88;;;-2.32;87.60
83843;BME280;73869;52.336;21.182;2024-01-06T00:51:00;100197.31;;;-2.28;88.01
83843;BME280;73869;52.336;21.182;2024-01-06T00:53:27;100208.66;;;-2.26;87.85
83843;BME280;73869;52.336;21.182;2024-01-06T00:55:55;100209.34;;;-2.34;88.99
83843;BME280;73869;52.336;21.182;2024-01-06T00:58:21;100195.34;;;-2.26;88.61
83843;BME280;73869;52.336;21.182;2024-01-06T01:00:48;100192.28;;;-2.31;87.71
83843;BME280;73869;52.336;21.182;2024-01-06T01:03:15;100186.53;;;-2.27;88.04
83843;BME280;73869;52.336;21.182;2024-01-06T01:05:41;100181.50;;;-2.30;87.85
83843;BME280;73869;52.336;21.182;2024-01-06T01:08:08;100188.50;;;-2.29;88.30
83843;BME280;73869;52.336;21.182;2024-01-06T01:10:34;100188.06;;;-2.34;88.01
83843;BME280;73869;52.336;21.182;2024-01-06T01:13:02;100193.13;;;-2.40;88.41
83843;BME280;73869;52.336;21.182;2024-01-06T01:15:29;100187.13;;;-2.42;88.44
83843;BME280;73869;52.336;21.182;2024-01-06T01:17:55;100175.38;;;-2.40;88.98
83843;BME280;73869;52.336;21.182;2024-01-06T01:20:22;100168.25;;;-2.39;87.47
83843;BME280;73869;52.336;21.182;2024-01-06T01:22:48;100166.53;;;-2.40;87.95
83843;BME280;73869;52.336;21.182;2024-01-06T01:25:15;100181.69;;;-2.41;88.00
83843;BME280;73869;52.336;21.182;2024-01-06T01:27:41;100177.91;;;-2.48;87.83
83843;BME280;73869;52.336;21.182;2024-01-06T01:30:10;100182.78;;;-2.43;88.57
83843;BME280;73869;52.336;21.182;2024-01-06T01:32:37;100184.75;;;-2.45;88.40
83843;BME280;73869;52.336;21.182;2024-01-06T01:35:04;100191.75;;;-2.44;89.05
83843;BME280;73869;52.336;21.182;2024-01-06T01:37:31;100186.56;;;-2.46;88.33
83843;BME280;73869;52.336;21.182;2024-01-06T01:39:57;100178.63;;;-2.55;89.00
83843;BME280;73869;52.336;21.182;2024-01-06T01:42:24;100187.28;;;-2.44;88.59
83843;BME280;73869;52.336;21.182;2024-01-06T01:44:51;100180.28;;;-2.45;89.07
83843;BME280;73869;52.336;21.182;2024-01-06T01:47:19;100177.50;;;-2.53;88.27
83843;BME280;73869;52.336;21.182;2024-01-06T01:49:47;100182.94;;;-2.45;88.43
83843;BME280;73869;52.336;21.182;2024-01-06T01:52:15;100183.34;;;-2.40;87.91
83843;BME280;73869;52.336;21.182;2024-01-06T01:54:42;100161.41;;;-2.51;88.06
83843;BME280;73869;52.336;21.182;2024-01-06T01:57:11;100168.41;;;-2.50;88.81
83843;BME280;73869;52.336;21.182;2024-01-06T01:59:39;100169.63;;;-2.45;88.62
83843;BME280;73869;52.336;21.182;2024-01-06T02:02:06;100166.00;;;-2.53;88.93
83843;BME280;73869;52.336;21.182;2024-01-06T02:04:34;100168.94;;;-2.47;89.15
83843;BME280;73869;52.336;21.182;2024-01-06T02:07:01;100167.13;;;-2.46;89.11
83843;BME280;73869;52.336;21.182;2024-01-06T02:09:27;100171.59;;;-2.47;88.71
83843;BME280;73869;52.336;21.182;2024-01-06T02:11:56;100172.16;;;-2.53;88.58
83843;BME280;73869;52.336;21.182;2024-01-06T02:14:23;100161.66;;;-2.45;88.74
83843;BME280;73869;52.336;21.182;2024-01-06T02:16:49;100169.06;;;-2.48;88.99
83843;BME280;73869;52.336;21.182;2024-01-06T02:19:16;100167.25;;;-2.38;88.38
83843;BME280;73869;52.336;21.182;2024-01-06T02:21:51;100164.16;;;-2.43;88.16
83843;BME280;73869;52.336;21.182;2024-01-06T02:24:18;100142.09;;;-2.63;87.60
83843;BME280;73869;52.336;21.182;2024-01-06T02:26:44;100167.81;;;-2.44;87.98
83843;BME280;73869;52.336;21.182;2024-01-06T02:29:11;100163.34;;;-2.44;88.80
83843;BME280;73869;52.336;21.182;2024-01-06T02:31:37;100148.78;;;-2.40;88.64
83843;BME280;73869;52.336;21.182;2024-01-06T02:34:04;100145.00;;;-2.37;87.20
83843;BME280;73869;52.336;21.182;2024-01-06T02:36:30;100151.28;;;-2.38;87.99
83843;BME280;73869;52.336;21.182;2024-01-06T02:38:58;100153.09;;;-2.39;88.48
83843;BME280;73869;52.336;21.182;2024-01-06T02:41:25;100150.31;;;-2.37;88.41
83843;BME280;73869;52.336;21.182;2024-01-06T02:43:52;100143.88;;;-2.35;87.63
83843;BME280;73869;52.336;21.182;2024-01-06T02:46:18;100146.53;;;-2.35;86.77
83843;BME280;73869;52.336;21.182;2024-01-06T02:48:44;100146.78;;;-2.28;87.04
83843;BME280;73869;52.336;21.182;2024-01-06T02:51:11;100152.84;;;-2.36;86.50
83843;BME280;73869;52.336;21.182;2024-01-06T02:53:38;100144.16;;;-2.38;86.71
83843;BME280;73869;52.336;21.182;2024-01-06T02:56:10;100142.22;;;-2.36;86.58
83843;BME280;73869;52.336;21.182;2024-01-06T02:58:37;100138.69;;;-2.36;86.25
83843;BME280;73869;52.336;21.182;2024-01-06T03:01:03;100138.56;;;-2.35;87.19
83843;BME280;73869;52.336;21.182;2024-01-06T03:03:30;100141.75;;;-2.31;86.12
83843;BME280;73869;52.336;21.182;2024-01-06T03:05:57;100145.69;;;-2.35;86.24
83843;BME280;73869;52.336;21.182;2024-01-06T03:08:23;100138.56;;;-2.35;86.19
83843;BME280;73869;52.336;21.182;2024-01-06T03:10:50;100137.16;;;-2.39;85.84
83843;BME280;73869;52.336;21.182;2024-01-06T03:13:18;100128.81;;;-2.44;86.34
83843;BME280;73869;52.336;21.182;2024-01-06T03:15:44;100136.19;;;-2.38;86.97
83843;BME280;73869;52.336;21.182;2024-01-06T03:18:11;100123.34;;;-2.52;87.30
83843;BME280;73869;52.336;21.182;2024-01-06T03:20:37;100137.47;;;-2.51;87.95
83843;BME280;73869;52.336;21.182;2024-01-06T03:23:04;100141.41;;;-2.55;87.41
83843;BME280;73869;52.336;21.182;2024-01-06T03:25:30;100137.22;;;-2.58;88.28
83843;BME280;73869;52.336;21.182;2024-01-06T03:27:57;100139.44;;;-2.53;88.82
83843;BME280;73869;52.336;21.182;2024-01-06T03:30:25;100145.84;;;-2.46;89.04
83843;BME280;73869;52.336;21.182;2024-01-06T03:32:51;100150.84;;;-2.34;88.03
83843;BME280;73869;52.336;21.182;2024-01-06T03:35:18;100139.81;;;-2.29;88.03
83843;BME280;73869;52.336;21.182;2024-01-06T03:37:44;100143.88;;;-2.35;88.45
83843;BME280;73869;52.336;21.182;2024-01-06T03:40:12;100141.50;;;-2.38;88.43
83843;BME280;73869;52.336;21.182;2024-01-06T03:42:38;100143.75;;;-2.43;88.79
83843;BME280;73869;52.336;21.182;2024-01-06T03:45:05;100142.91;;;-2.43;88.85
83843;BME280;73869;52.336;21.182;2024-01-06T03:47:33;100135.41;;;-2.57;88.08
83843;BME280;73869;52.336;21.182;2024-01-06T03:50:01;100136.91;;;-2.55;88.62
83843;BME280;73869;52.336;21.182;2024-01-06T03:52:27;100136.09;;;-2.55;89.39
83843;BME280;73869;52.336;21.182;2024-01-06T03:54:54;100140.97;;;-2.51;89.15
83843;BME280;73869;52.336;21.182;2024-01-06T03:57:22;100140.41;;;-2.54;89.25
83843;BME280;73869;52.336;21.182;2024-01-06T03:59:49;100131.31;;;-2.42;88.41
83843;BME280;73869;52.336;21.182;2024-01-06T04:02:16;100137.47;;;-2.51;88.51
83843;BME280;73869;52.336;21.182;2024-01-06T04:04:43;100128.53;;;-2.60;88.64
83843;BME280;73869;52.336;21.182;2024-01-06T04:07:10;100131.31;;;-2.52;88.60
83843;BME280;73869;52.336;21.182;2024-01-06T04:09:36;100129.38;;;-2.59;89.07
83843;BME280;73869;52.336;21.182;2024-01-06T04:12:03;100148.25;;;-2.53;89.02
83843;BME280;73869;52.336;21.182;2024-01-06T04:14:30;100148.25;;;-2.53;90.44
83843;BME280;73869;52.336;21.182;2024-01-06T04:16:56;100135.69;;;-2.60;89.60
83843;BME280;73869;52.336;21.182;2024-01-06T04:19:23;100147.00;;;-2.49;89.11
83843;BME280;73869;52.336;21.182;2024-01-06T04:21:51;100138.59;;;-2.63;89.33
83843;BME280;73869;52.336;21.182;2024-01-06T04:24:17;100153.13;;;-2.48;89.72
83843;BME280;73869;52.336;21.182;2024-01-06T04:26:44;100141.66;;;-2.58;89.94
83843;BME280;73869;52.336;21.182;2024-01-06T04:29:11;100153.53;;;-2.43;89.33
83843;BME280;73869;52.336;21.182;2024-01-06T04:31:38;100153.53;;;-2.43;89.39
83843;BME280;73869;52.336;21.182;2024-01-06T04:34:04;100145.16;;;-2.48;89.25
83843;BME280;73869;52.336;21.182;2024-01-06T04:36:31;100142.63;;;-2.50;89.65
83843;BME280;73869;52.336;21.182;2024-01-06T04:38:59;100147.25;;;-2.52;89.13
83843;BME280;73869;52.336;21.182;2024-01-06T04:41:25;100150.34;;;-2.56;89.77
83843;BME280;73869;52.336;21.182;2024-01-06T04:43:54;100152.56;;;-2.52;89.69
83843;BME280;73869;52.336;21.182;2024-01-06T04:46:20;100155.78;;;-2.48;89.53
83843;BME280;73869;52.336;21.182;2024-01-06T04:48:47;100157.63;;;-2.49;89.65
83843;BME280;73869;52.336;21.182;2024-01-06T04:51:13;100169.94;;;-2.48;90.22
83843;BME280;73869;52.336;21.182;2024-01-06T04:53:40;100171.59;;;-2.47;89.68
83843;BME280;73869;52.336;21.182;2024-01-06T04:56:08;100168.25;;;-2.49;90.21
83843;BME280;73869;52.336;21.182;2024-01-06T04:58:35;100165.59;;;-2.49;90.50
83843;BME280;73869;52.336;21.182;2024-01-06T05:01:04;100166.53;;;-2.40;90.77
83843;BME280;73869;52.336;21.182;2024-01-06T05:03:31;100173.38;;;-2.28;89.47
83843;BME280;73869;52.336;21.182;2024-01-06T05:05:58;100167.38;;;-2.40;89.36
83843;BME280;73869;52.336;21.182;2024-01-06T05:08:24;100169.59;;;-2.35;89.79
83843;BME280;73869;52.336;21.182;2024-01-06T05:10:52;100173.69;;;-2.41;89.55
83843;BME280;73869;52.336;21.182;2024-01-06T05:13:20;100164.91;;;-2.51;89.66
83843;BME280;73869;52.336;21.182;2024-01-06T05:15:47;100160.84;;;-2.55;90.11
83843;BME280;73869;52.336;21.182;2024-01-06T05:18:13;100167.28;;;-2.57;89.79
83843;BME280;73869;52.336;21.182;2024-01-06T05:20:40;100179.44;;;-2.55;89.92
83843;BME280;73869;52.336;21.182;2024-01-06T05:23:07;100178.06;;;-2.59;89.86
83843;BME280;73869;52.336;21.182;2024-01-06T05:25:33;100180.31;;;-2.64;89.88
83843;BME280;73869;52.336;21.182;2024-01-06T05:28:00;100182.53;;;-2.69;89.84
83843;BME280;73869;52.336;21.182;2024-01-06T05:30:28;100174.44;;;-2.67;90.72
83843;BME280;73869;52.336;21.182;2024-01-06T05:32:54;100182.25;;;-2.56;90.05
83843;BME280;73869;52.336;21.182;2024-01-06T05:35:21;100180.31;;;-2.64;90.35
83843;BME280;73869;52.336;21.182;2024-01-06T05:37:47;100178.59;;;-2.65;90.95
83843;BME280;73869;52.336;21.182;2024-01-06T05:40:14;100181.56;;;-2.68;90.57
83843;BME280;73869;52.336;21.182;2024-01-06T05:42:40;100190.94;;;-2.64;89.85
83843;BME280;73869;52.336;21.182;2024-01-06T05:45:10;100182.25;;;-2.66;90.87
83843;BME280;73869;52.336;21.182;2024-01-06T05:47:38;100185.34;;;-2.61;90.78
83843;BME280;73869;52.336;21.182;2024-01-06T05:50:06;100186.59;;;-2.65;90.32
83843;BME280;73869;52.336;21.182;2024-01-06T05:52:34;100186.19;;;-2.60;90.08
83843;BME280;73869;52.336;21.182;2024-01-06T05:55:01;100180.84;;;-2.70;90.28
83843;BME280;73869;52.336;21.182;2024-01-06T05:57:28;100188.72;;;-2.68;90.77
83843;BME280;73869;52.336;21.182;2024-01-06T05:59:56;100190.94;;;-2.64;91.05
83843;BME280;73869;52.336;21.182;2024-01-06T06:02:22;100188.56;;;-2.67;89.92
83843;BME280;73869;52.336;21.182;2024-01-06T06:04:51;100173.16;;;-2.63;89.91
83843;BME280;73869;52.336;21.182;2024-01-06T06:07:17;100199.19;;;-2.67;89.52
83843;BME280;73869;52.336;21.182;2024-01-06T06:09:44;100188.13;;;-2.62;89.62
83843;BME280;73869;52.336;21.182;2024-01-06T06:12:12;100193.88;;;-2.67;89.35
83843;BME280;73869;52.336;21.182;2024-01-06T06:14:39;100198.63;;;-2.70;88.97
83843;BME280;73869;52.336;21.182;2024-01-06T06:17:05;100206.31;;;-2.77;89.92
83843;BME280;73869;52.336;21.182;2024-01-06T06:19:32;100207.03;;;-2.75;89.49
83843;BME280;73869;52.336;21.182;2024-01-06T06:22:00;100213.31;;;-2.76;89.96
83843;BME280;73869;52.336;21.182;2024-01-06T06:24:26;100219.47;;;-2.66;88.64
83843;BME280;73869;52.336;21.182;2024-01-06T06:26:53;100223.50;;;-2.72;89.69
83843;BME280;73869;52.336;21.182;2024-01-06T06:29:19;100233.75;;;-2.67;88.96
83843;BME280;73869;52.336;21.182;2024-01-06T06:31:46;100225.91;;;-2.68;89.04
83843;BME280;73869;52.336;21.182;2024-01-06T06:34:14;100229.38;;;-2.68;89.11
83843;BME280;73869;52.336;21.182;2024-01-06T06:36:40;100233.19;;;-2.70;89.16
83843;BME280;73869;52.336;21.182;2024-01-06T06:39:08;100230.25;;;-2.67;88.62
83843;BME280;73869;52.336;21.182;2024-01-06T06:41:35;100222.84;;;-2.73;89.62
83843;BME280;73869;52.336;21.182;2024-01-06T06:44:01;100227.44;;;-2.66;89.05
83843;BME280;73869;52.336;21.182;2024-01-06T06:46:27;100236.13;;;-2.64;88.05
83843;BME280;73869;52.336;21.182;2024-01-06T06:48:54;100232.91;;;-2.67;89.15
83843;BME280;73869;52.336;21.182;2024-01-06T06:51:21;100240.72;;;-2.66;88.92
83843;BME280;73869;52.336;21.182;2024-01-06T06:53:50;100231.75;;;-2.65;88.69
83843;BME280;73869;52.336;21.182;2024-01-06T06:56:18;100239.47;;;-2.62;88.82
83843;BME280;73869;52.336;21.182;2024-01-06T06:58:45;100236.53;;;-2.68;88.74
83843;BME280;73869;52.336;21.182;2024-01-06T07:01:13;100261.28;;;-2.58;88.69
83843;BME280;73869;52.336;21.182;2024-01-06T07:03:39;100263.81;;;-2.57;89.09
83843;BME280;73869;52.336;21.182;2024-01-06T07:06:06;100266.72;;;-2.60;88.55
83843;BME280;73869;52.336;21.182;2024-01-06T07:08:32;100259.75;;;-2.61;88.16
83843;BME280;73869;52.336;21.182;2024-01-06T07:11:00;100265.78;;;-2.59;88.94
83843;BME280;73869;52.336;21.182;2024-01-06T07:13:27;100260.75;;;-2.52;87.84
83843;BME280;73869;52.336;21.182;2024-01-06T07:15:53;100267.44;;;-2.58;88.02
83843;BME280;73869;52.336;21.182;2024-01-06T07:18:19;100267.00;;;-2.63;89.14
83843;BME280;73869;52.336;21.182;2024-01-06T07:20:48;100261.56;;;-2.52;87.96
83843;BME280;73869;52.336;21.182;2024-01-06T07:23:15;100263.94;;;-2.58;87.79
83843;BME280;73869;52.336;21.182;2024-01-06T07:25:41;100260.03;;;-2.54;88.01
83843;BME280;73869;52.336;21.182;2024-01-06T07:28:08;100252.06;;;-2.54;88.09
83843;BME280;73869;52.336;21.182;2024-01-06T07:30:35;100235.41;;;-2.66;88.97
83843;BME280;73869;52.336;21.182;2024-01-06T07:33:02;100249.97;;;-2.51;88.00
83843;BME280;73869;52.336;21.182;2024-01-06T07:35:29;100251.78;;;-2.51;88.00
83843;BME280;73869;52.336;21.182;2024-01-06T07:37:55;100248.25;;;-2.52;87.66
83843;BME280;73869;52.336;21.182;2024-01-06T07:40:22;100248.16;;;-2.50;88.17
83843;BME280;73869;52.336;21.182;2024-01-06T07:42:50;100243.94;;;-2.43;87.97
83843;BME280;73869;52.336;21.182;2024-01-06T07:45:17;100252.19;;;-2.46;87.12
83843;BME280;73869;52.336;21.182;2024-01-06T07:47:45;100237.94;;;-2.64;87.78
83843;BME280;73869;52.336;21.182;2024-01-06T07:50:12;100280.72;;;-2.48;87.03
83843;BME280;73869;52.336;21.182;2024-01-06T07:52:38;100282.56;;;-2.49;87.78
83843;BME280;73869;52.336;21.182;2024-01-06T07:55:05;100280.44;;;-2.45;86.66
83843;BME280;73869;52.336;21.182;2024-01-06T07:57:32;100285.75;;;-2.45;87.48
83843;BME280;73869;52.336;21.182;2024-01-06T07:59:58;100282.00;;;-2.43;87.34
83843;BME280;73869;52.336;21.182;2024-01-06T08:02:26;100294.88;;;-2.38;87.36
83843;BME280;73869;52.336;21.182;2024-01-06T08:04:54;100295.16;;;-2.41;87.08
83843;BME280;73869;52.336;21.182;2024-01-06T08:07:21;100304.78;;;-2.50;87.02
83843;BME280;73869;52.336;21.182;2024-01-06T08:09:47;100304.94;;;-2.42;86.93
83843;BME280;73869;52.336;21.182;2024-01-06T08:12:14;100314.59;;;-2.41;86.21
83843;BME280;73869;52.336;21.182;2024-01-06T08:14:41;100308.16;;;-2.38;87.12
83843;BME280;73869;52.336;21.182;2024-01-06T08:17:08;100302.28;;;-2.42;85.70
83843;BME280;73869;52.336;21.182;2024-01-06T08:19:34;100311.81;;;-2.39;85.78
83843;BME280;73869;52.336;21.182;2024-01-06T08:22:02;100315.56;;;-2.42;86.41
83843;BME280;73869;52.336;21.182;2024-01-06T08:24:29;100317.81;;;-2.47;86.66
83843;BME280;73869;52.336;21.182;2024-01-06T08:26:55;100318.66;;;-2.46;86.59
83843;BME280;73869;52.336;21.182;2024-01-06T08:29:22;100319.94;;;-2.41;86.54
83843;BME280;73869;52.336;21.182;2024-01-06T08:31:49;100324.97;;;-2.38;87.12
83843;BME280;73869;52.336;21.182;2024-01-06T08:34:17;100332.78;;;-2.27;86.50
83843;BME280;73869;52.336;21.182;2024-01-06T08:36:44;100333.06;;;-2.30;86.21
83843;BME280;73869;52.336;21.182;2024-01-06T08:39:12;100332.78;;;-2.36;85.13
83843;BME280;73869;52.336;21.182;2024-01-06T08:41:39;100349.84;;;-2.39;86.52
83843;BME280;73869;52.336;21.182;2024-01-06T08:44:05;100337.84;;;-2.43;86.40
83843;BME280;73869;52.336;21.182;2024-01-06T08:46:32;100333.66;;;-2.36;86.65
83843;BME280;73869;52.336;21.182;2024-01-06T08:48:58;100344.69;;;-2.31;85.21
83843;BME280;73869;52.336;21.182;2024-01-06T08:51:26;100345.09;;;-2.26;86.01
83843;BME280;73869;52.336;21.182;2024-01-06T08:53:52;100340.22;;;-2.30;85.58
83843;BME280;73869;52.336;21.182;2024-01-06T08:56:20;100342.72;;;-2.29;85.54
83843;BME280;73869;52.336;21.182;2024-01-06T08:58:47;100340.63;;;-2.35;84.87
83843;BME280;73869;52.336;21.182;2024-01-06T09:01:13;100358.53;;;-2.37;85.11
83843;BME280;73869;52.336;21.182;2024-01-06T09:03:39;100355.44;;;-2.32;86.15
83843;BME280;73869;52.336;21.182;2024-01-06T09:06:06;100359.66;;;-2.30;85.43
83843;BME280;73869;52.336;21.182;2024-01-06T09:08:33;100351.41;;;-2.27;85.97
83843;BME280;73869;52.336;21.182;2024-01-06T09:10:59;100356.72;;;-2.17;85.35
83843;BME280;73869;52.336;21.182;2024-01-06T09:13:27;100344.00;;;-2.23;84.79
83843;BME280;73869;52.336;21.182;2024-01-06T09:15:53;100362.91;;;-2.17;84.83
83843;BME280;73869;52.336;21.182;2024-01-06T09:18:20;100359.25;;;-2.16;84.18
83843;BME280;73869;52.336;21.182;2024-01-06T09:20:47;100365.56;;;-2.17;84.76
83843;BME280;73869;52.336;21.182;2024-01-06T09:23:14;100356.06;;;-2.19;84.79
83843;BME280;73869;52.336;21.182;2024-01-06T09:25:40;100365.97;;;-2.12;84.55
83843;BME280;73869;52.336;21.182;2024-01-06T09:28:07;100356.19;;;-2.11;84.23
83843;BME280;73869;52.336;21.182;2024-01-06T09:30:34;100359.38;;;-2.08;84.27
83843;BME280;73869;52.336;21.182;2024-01-06T09:33:03;100367.94;;;-2.14;82.97
83843;BME280;73869;52.336;21.182;2024-01-06T09:35:29;100356.06;;;-2.19;84.69
83843;BME280;73869;52.336;21.182;2024-01-06T09:37:56;100355.75;;;-2.16;84.68
83843;BME280;73869;52.336;21.182;2024-01-06T09:40:23;100353.09;;;-2.16;83.87
83843;BME280;73869;52.336;21.182;2024-01-06T09:42:50;100365.56;;;-2.17;82.90
83843;BME280;73869;52.336;21.182;2024-01-06T09:45:18;100363.47;;;-2.13;83.91
83843;BME280;73869;52.336;21.182;2024-01-06T09:47:49;100365.53;;;-2.07;83.91
83843;BME280;73869;52.336;21.182;2024-01-06T09:50:18;100360.94;;;-2.05;83.12
83843;BME280;73869;52.336;21.182;2024-01-06T09:52:46;100365.81;;;-2.01;83.23
83843;BME280;73869;52.336;21.182;2024-01-06T09:55:23;100343.56;;;-2.09;83.50
83843;BME280;73869;52.336;21.182;2024-01-06T09:57:50;100358.69;;;-2.00;83.52
83843;BME280;73869;52.336;21.182;2024-01-06T10:00:18;100363.59;;;-2.05;83.67
83843;BME280;73869;52.336;21.182;2024-01-06T10:02:46;100360.78;;;-2.04;84.26
83843;BME280;73869;52.336;21.182;2024-01-06T10:05:15;100364.00;;;-2.00;82.60
83843;BME280;73869;52.336;21.182;2024-01-06T10:07:42;100354.63;;;-2.04;84.16
83843;BME280;73869;52.336;21.182;2024-01-06T10:10:09;100364.31;;;-2.03;83.79
83843;BME280;73869;52.336;21.182;2024-01-06T10:12:37;100360.50;;;-2.01;83.79
83843;BME280;73869;52.336;21.182;2024-01-06T10:15:04;100362.72;;;-1.96;84.31
83843;BME280;73869;52.336;21.182;2024-01-06T10:17:31;100358.13;;;-1.94;84.40
83843;BME280;73869;52.336;21.182;2024-01-06T10:19:59;100360.50;;;-1.91;84.96
83843;BME280;73869;52.336;21.182;2024-01-06T10:22:26;100376.59;;;-1.93;84.65
83843;BME280;73869;52.336;21.182;2024-01-06T10:24:54;100369.03;;;-1.88;85.46
83843;BME280;73869;52.336;21.182;2024-01-06T10:27:21;100359.09;;;-1.86;83.58
83843;BME280;73869;52.336;21.182;2024-01-06T10:29:48;100365.97;;;-1.93;84.23
83843;BME280;73869;52.336;21.182;2024-01-06T10:32:14;100367.81;;;-1.93;84.10
83843;BME280;73869;52.336;21.182;2024-01-06T10:34:42;100365.41;;;-1.87;85.72
83843;BME280;73869;52.336;21.182;2024-01-06T10:37:10;100363.00;;;-1.90;83.82
83843;BME280;73869;52.336;21.182;2024-01-06T10:39:37;100368.19;;;-1.88;83.57
83843;BME280;73869;52.336;21.182;2024-01-06T10:42:04;100373.22;;;-1.95;84.85
83843;BME280;73869;52.336;21.182;2024-01-06T10:44:32;100370.03;;;-1.89;84.77
83843;BME280;73869;52.336;21.182;2024-01-06T10:47:00;100367.09;;;-1.86;85.60
83843;BME280;73869;52.336;21.182;2024-01-06T10:49:30;100364.16;;;-1.92;85.50
83843;BME280;73869;52.336;21.182;2024-01-06T10:51:58;100369.75;;;-1.86;84.50
83843;BME280;73869;52.336;21.182;2024-01-06T10:54:27;100367.50;;;-1.81;85.04
83843;BME280;73869;52.336;21.182;2024-01-06T10:56:55;100370.75;;;-1.87;84.51
83843;BME280;73869;52.336;21.182;2024-01-06T10:59:23;100371.81;;;-1.80;83.70
83843;BME280;73869;52.336;21.182;2024-01-06T11:01:52;100357.97;;;-1.83;85.60
83843;BME280;73869;52.336;21.182;2024-01-06T11:04:22;100336.41;;;-1.90;84.47
83843;BME280;73869;52.336;21.182;2024-01-06T11:06:50;100355.47;;;-1.75;84.64
83843;BME280;73869;52.336;21.182;2024-01-06T11:09:21;100353.06;;;-1.69;84.26
83843;BME280;73869;52.336;21.182;2024-01-06T11:11:50;100346.88;;;-1.69;84.02
83843;BME280;73869;52.336;21.182;2024-01-06T11:14:18;100363.56;;;-1.67;83.82
83843;BME280;73869;52.336;21.182;2024-01-06T11:16:46;100362.84;;;-1.69;83.63
83843;BME280;73869;52.336;21.182;2024-01-06T11:19:43;100369.59;;;-1.75;82.54
83843;BME280;73869;52.336;21.182;2024-01-06T11:22:24;100364.66;;;-1.70;83.48
83843;BME280;73869;52.336;21.182;2024-01-06T11:24:52;100370.56;;;-1.76;82.50
83843;BME280;73869;52.336;21.182;2024-01-06T11:27:22;100371.00;;;-1.71;83.73
83843;BME280;73869;52.336;21.182;2024-01-06T11:29:52;100352.19;;;-1.60;83.23
83843;BME280;73869;52.336;21.182;2024-01-06T11:32:20;100369.25;;;-1.43;82.68
83843;BME280;73869;52.336;21.182;2024-01-06T11:34:51;100381.28;;;-1.39;83.81
83843;BME280;73869;52.336;21.182;2024-01-06T11:37:20;100374.03;;;-1.56;80.93
83843;BME280;73869;52.336;21.182;2024-01-06T11:39:50;100373.78;;;-1.63;81.81
83843;BME280;73869;52.336;21.182;2024-01-06T11:42:32;100378.25;;;-1.63;81.54
83843;BME280;73869;52.336;21.182;2024-01-06T11:45:01;100359.88;;;-1.57;83.13
83843;BME280;73869;52.336;21.182;2024-01-06T11:47:29;100362.13;;;-1.62;82.65
83843;BME280;73869;52.336;21.182;2024-01-06T11:49:59;100363.84;;;-1.61;82.03
83843;BME280;73869;52.336;21.182;2024-01-06T11:52:26;100374.16;;;-1.48;81.69
83843;BME280;73869;52.336;21.182;2024-01-06T11:54:54;100383.16;;;-1.49;80.25
83843;BME280;73869;52.336;21.182;2024-01-06T11:57:23;100391.53;;;-1.44;80.45
83843;BME280;73869;52.336;21.182;2024-01-06T11:59:50;100377.66;;;-1.57;79.36
83843;BME280;73869;52.336;21.182;2024-01-06T12:02:17;100379.19;;;-1.45;79.67
83843;BME280;73869;52.336;21.182;2024-01-06T12:04:47;100371.50;;;-1.48;78.32
83843;BME280;73869;52.336;21.182;2024-01-06T12:07:15;100383.53;;;-1.34;79.13
83843;BME280;73869;52.336;21.182;2024-01-06T12:09:42;100375.94;;;-1.39;78.80
83843;BME280;73869;52.336;21.182;2024-01-06T12:12:10;100359.28;;;-1.51;79.71
83843;BME280;73869;52.336;21.182;2024-01-06T12:14:59;100379.75;;;-1.42;79.73
83843;BME280;73869;52.336;21.182;2024-01-06T12:18:43;100384.84;;;-1.58;80.03
83843;BME280;73869;52.336;21.182;2024-01-06T12:21:48;100370.50;;;-1.47;80.79
83843;BME280;73869;52.336;21.182;2024-01-06T12:24:33;100386.34;;;-1.46;80.19
83843;BME280;73869;52.336;21.182;2024-01-06T12:28:01;100377.53;;;-1.65;79.31
83843;BME280;73869;52.336;21.182;2024-01-06T12:30:53;100370.41;;;-1.65;79.91
83843;BME280;73869;52.336;21.182;2024-01-06T12:36:52;100390.03;;;-1.56;78.62
83843;BME280;73869;52.336;21.182;2024-01-06T12:39:48;100395.59;;;-1.50;78.21
83843;BME280;73869;52.336;21.182;2024-01-06T12:42:23;100404.31;;;-1.48;78.77
83843;BME280;73869;52.336;21.182;2024-01-06T12:45:13;100359.63;;;-1.73;76.94
83843;BME280;73869;52.336;21.182;2024-01-06T12:47:42;100393.38;;;-1.54;76.88
83843;BME280;73869;52.336;21.182;2024-01-06T12:50:09;100390.72;;;-1.54;75.33